sensor_id;sensor_type;location;lat;lon;timestamp;temperature;humidity
34815;DHT22;21030;53.912;15.214;2023-09-30T00:01:25;37.80;30.00
34815;DHT22;21030;53.912;15.214;2023-09-30T00:03:53;37.00;30.00
34815;DHT22;21030;53.912;15.214;2023-09-30T00:06:21;37.40;30.30
34815;DHT22;21030;53.912;15.214;2023-09-30T00:08:48;37.90;30.00
34815;DHT22;21030;53.912;15.214;2023-09-30T00:11:15;36.60;30.20
34815;DHT22;21030;53.912;15.214;2023-09-30T00:13:44;36.40;31.20
34815;DHT22;21030;53.912;15.214;2023-09-30T00:16:12;36.10;31.10
34815;DHT22;21030;53.912;15.214;2023-09-30T00:18:39;36.40;31.50
34815;DHT22;21030;53.912;15.214;2023-09-30T00:21:07;35.70;31.20
34815;DHT22;21030;53.912;15.214;2023-09-30T00:23:34;35.80;31.60
34815;DHT22;21030;53.912;15.214;2023-09-30T00:26:01;36.40;31.20
34815;DHT22;21030;53.912;15.214;2023-09-30T00:28:29;36.80;30.60
34815;DHT22;21030;53.912;15.214;2023-09-30T00:30:56;37.50;30.00
34815;DHT22;21030;53.912;15.214;2023-09-30T00:33:26;37.70;29.80
34815;DHT22;21030;53.912;15.214;2023-09-30T00:35:53;38.00;29.80
34815;DHT22;21030;53.912;15.214;2023-09-30T00:38:20;37.50;29.40
34815;DHT22;21030;53.912;15.214;2023-09-30T00:40:50;37.90;29.50
34815;DHT22;21030;53.912;15.214;2023-09-30T00:43:18;38.10;29.30
34815;DHT22;21030;53.912;15.214;2023-09-30T00:45:48;38.10;29.20
34815;DHT22;21030;53.912;15.214;2023-09-30T00:48:16;38.80;28.80
34815;DHT22;21030;53.912;15.214;2023-09-30T00:50:44;38.60;28.50
34815;DHT22;21030;53.912;15.214;2023-09-30T00:53:11;38.50;28.30
34815;DHT22;21030;53.912;15.214;2023-09-30T00:55:38;38.00;28.80
34815;DHT22;21030;53.912;15.214;2023-09-30T00:58:06;38.40;28.70
34815;DHT22;21030;53.912;15.214;2023-09-30T01:00:33;38.20;29.50
34815;DHT22;21030;53.912;15.214;2023-09-30T01:03:01;37.70;28.80
34815;DHT22;21030;53.912;15.214;2023-09-30T01:05:31;38.30;28.70
34815;DHT22;21030;53.912;15.214;2023-09-30T01:07:58;36.60;28.40
34815;DHT22;21030;53.912;15.214;2023-09-30T01:10:28;36.70;29.00
34815;DHT22;21030;53.912;15.214;2023-09-30T01:12:55;36.90;29.00
34815;DHT22;21030;53.912;15.214;2023-09-30T01:15:22;37.20;28.60
34815;DHT22;21030;53.912;15.214;2023-09-30T01:17:49;36.80;28.90
34815;DHT22;21030;53.912;15.214;2023-09-30T01:20:16;37.00;28.60
34815;DHT22;21030;53.912;15.214;2023-09-30T01:22:46;36.20;29.00
34815;DHT22;21030;53.912;15.214;2023-09-30T01:25:13;35.90;28.90
34815;DHT22;21030;53.912;15.214;2023-09-30T01:27:40;36.50;29.00
34815;DHT22;21030;53.912;15.214;2023-09-30T01:30:07;36.80;28.70
34815;DHT22;21030;53.912;15.214;2023-09-30T01:32:38;36.30;28.20
34815;DHT22;21030;53.912;15.214;2023-09-30T01:35:05;36.00;28.30
34815;DHT22;21030;53.912;15.214;2023-09-30T01:37:32;36.00;28.40
34815;DHT22;21030;53.912;15.214;2023-09-30T01:39:59;36.50;27.80
34815;DHT22;21030;53.912;15.214;2023-09-30T01:42:26;37.00;27.80
34815;DHT22;21030;53.912;15.214;2023-09-30T01:44:53;37.20;27.60
34815;DHT22;21030;53.912;15.214;2023-09-30T01:47:21;37.80;27.40
34815;DHT22;21030;53.912;15.214;2023-09-30T01:49:48;37.90;27.20
34815;DHT22;21030;53.912;15.214;2023-09-30T01:52:15;38.20;26.90
34815;DHT22;21030;53.912;15.214;2023-09-30T01:54:42;38.20;26.90
34815;DHT22;21030;53.912;15.214;2023-09-30T01:57:09;38.60;26.90
34815;DHT22;21030;53.912;15.214;2023-09-30T01:59:36;38.70;26.80
34815;DHT22;21030;53.912;15.214;2023-09-30T02:02:04;39.10;26.50
34815;DHT22;21030;53.912;15.214;2023-09-30T02:04:31;38.50;26.60
34815;DHT22;21030;53.912;15.214;2023-09-30T02:06:58;38.80;26.70
34815;DHT22;21030;53.912;15.214;2023-09-30T02:09:25;38.40;26.80
34815;DHT22;21030;53.912;15.214;2023-09-30T02:11:52;37.60;27.50
34815;DHT22;21030;53.912;15.214;2023-09-30T02:14:19;37.90;27.50
34815;DHT22;21030;53.912;15.214;2023-09-30T02:16:47;37.90;27.50
34815;DHT22;21030;53.912;15.214;2023-09-30T02:19:14;37.10;27.30
34815;DHT22;21030;53.912;15.214;2023-09-30T02:21:41;36.80;28.20
34815;DHT22;21030;53.912;15.214;2023-09-30T02:24:08;37.50;27.90
34815;DHT22;21030;53.912;15.214;2023-09-30T02:26:35;38.00;27.30
34815;DHT22;21030;53.912;15.214;2023-09-30T02:29:02;37.50;26.90
34815;DHT22;21030;53.912;15.214;2023-09-30T02:31:29;37.60;27.00
34815;DHT22;21030;53.912;15.214;2023-09-30T02:33:56;37.30;26.70
34815;DHT22;21030;53.912;15.214;2023-09-30T02:36:24;37.60;26.70
34815;DHT22;21030;53.912;15.214;2023-09-30T02:38:51;37.70;26.70
34815;DHT22;21030;53.912;15.214;2023-09-30T02:41:18;37.30;26.60
34815;DHT22;21030;53.912;15.214;2023-09-30T02:43:45;37.60;26.70
34815;DHT22;21030;53.912;15.214;2023-09-30T02:46:13;38.20;26.30
34815;DHT22;21030;53.912;15.214;2023-09-30T02:48:40;38.60;26.00
34815;DHT22;21030;53.912;15.214;2023-09-30T02:51:11;38.70;26.10
34815;DHT22;21030;53.912;15.214;2023-09-30T02:53:38;38.20;26.30
34815;DHT22;21030;53.912;15.214;2023-09-30T02:56:05;38.00;26.70
34815;DHT22;21030;53.912;15.214;2023-09-30T02:58:33;38.10;26.90
34815;DHT22;21030;53.912;15.214;2023-09-30T03:01:00;38.10;27.00
34815;DHT22;21030;53.912;15.214;2023-09-30T03:03:28;37.90;27.10
34815;DHT22;21030;53.912;15.214;2023-09-30T03:05:55;37.50;27.30
34815;DHT22;21030;53.912;15.214;2023-09-30T03:08:22;37.30;27.60
34815;DHT22;21030;53.912;15.214;2023-09-30T03:10:51;37.00;27.70
34815;DHT22;21030;53.912;15.214;2023-09-30T03:13:18;37.10;27.90
34815;DHT22;21030;53.912;15.214;2023-09-30T03:15:45;37.50;27.80
34815;DHT22;21030;53.912;15.214;2023-09-30T03:18:12;36.60;27.80
34815;DHT22;21030;53.912;15.214;2023-09-30T03:20:40;36.40;28.30
34815;DHT22;21030;53.912;15.214;2023-09-30T03:23:09;36.40;28.40
34815;DHT22;21030;53.912;15.214;2023-09-30T03:25:36;36.40;28.10
34815;DHT22;21030;53.912;15.214;2023-09-30T03:28:04;36.00;28.30
34815;DHT22;21030;53.912;15.214;2023-09-30T03:30:33;36.40;28.50
34815;DHT22;21030;53.912;15.214;2023-09-30T03:33:02;36.10;28.50
34815;DHT22;21030;53.912;15.214;2023-09-30T03:35:31;36.30;28.30
34815;DHT22;21030;53.912;15.214;2023-09-30T03:37:59;35.80;28.30
34815;DHT22;21030;53.912;15.214;2023-09-30T03:40:26;36.20;28.20
34815;DHT22;21030;53.912;15.214;2023-09-30T03:42:55;36.50;27.90
34815;DHT22;21030;53.912;15.214;2023-09-30T03:45:22;36.90;27.70
34815;DHT22;21030;53.912;15.214;2023-09-30T03:47:50;36.80;27.40
34815;DHT22;21030;53.912;15.214;2023-09-30T03:50:18;37.00;27.30
34815;DHT22;21030;53.912;15.214;2023-09-30T03:52:45;36.80;27.20
34815;DHT22;21030;53.912;15.214;2023-09-30T03:55:14;36.80;27.30
34815;DHT22;21030;53.912;15.214;2023-09-30T03:57:43;37.30;27.10
34815;DHT22;21030;53.912;15.214;2023-09-30T04:00:19;37.30;26.90
34815;DHT22;21030;53.912;15.214;2023-09-30T04:02:48;37.40;26.80
34815;DHT22;21030;53.912;15.214;2023-09-30T04:05:18;37.60;26.80
34815;DHT22;21030;53.912;15.214;2023-09-30T04:07:46;38.00;26.60
34815;DHT22;21030;53.912;15.214;2023-09-30T04:10:14;37.90;26.40
34815;DHT22;21030;53.912;15.214;2023-09-30T04:12:41;37.80;26.50
34815;DHT22;21030;53.912;15.214;2023-09-30T04:15:09;37.70;26.50
34815;DHT22;21030;53.912;15.214;2023-09-30T04:17:39;37.10;27.20
34815;DHT22;21030;53.912;15.214;2023-09-30T04:20:07;37.20;27.20
34815;DHT22;21030;53.912;15.214;2023-09-30T04:22:38;36.80;27.30
34815;DHT22;21030;53.912;15.214;2023-09-30T04:25:05;36.80;27.40
34815;DHT22;21030;53.912;15.214;2023-09-30T04:27:35;37.20;27.30
34815;DHT22;21030;53.912;15.214;2023-09-30T04:30:04;37.50;27.00
34815;DHT22;21030;53.912;15.214;2023-09-30T04:32:36;37.60;26.90
34815;DHT22;21030;53.912;15.214;2023-09-30T04:35:05;37.50;27.00
34815;DHT22;21030;53.912;15.214;2023-09-30T04:37:32;37.70;26.90
34815;DHT22;21030;53.912;15.214;2023-09-30T04:40:00;37.90;26.60
34815;DHT22;21030;53.912;15.214;2023-09-30T04:42:27;37.70;26.10
34815;DHT22;21030;53.912;15.214;2023-09-30T04:44:54;37.30;27.00
34815;DHT22;21030;53.912;15.214;2023-09-30T04:47:22;36.60;27.50
34815;DHT22;21030;53.912;15.214;2023-09-30T04:49:51;35.80;28.40
34815;DHT22;21030;53.912;15.214;2023-09-30T04:52:18;35.60;28.40
34815;DHT22;21030;53.912;15.214;2023-09-30T04:54:45;35.80;29.20
34815;DHT22;21030;53.912;15.214;2023-09-30T04:57:12;35.60;28.70
34815;DHT22;21030;53.912;15.214;2023-09-30T04:59:40;35.80;28.50
34815;DHT22;21030;53.912;15.214;2023-09-30T05:02:06;35.60;28.70
34815;DHT22;21030;53.912;15.214;2023-09-30T05:04:33;35.00;29.10
34815;DHT22;21030;53.912;15.214;2023-09-30T05:07:00;34.90;29.50
34815;DHT22;21030;53.912;15.214;2023-09-30T05:09:27;34.50;29.80
34815;DHT22;21030;53.912;15.214;2023-09-30T05:11:55;34.80;29.80
34815;DHT22;21030;53.912;15.214;2023-09-30T05:14:22;34.40;30.00
34815;DHT22;21030;53.912;15.214;2023-09-30T05:16:49;34.90;30.00
34815;DHT22;21030;53.912;15.214;2023-09-30T05:19:16;34.80;30.00
34815;DHT22;21030;53.912;15.214;2023-09-30T05:21:43;34.80;30.20
34815;DHT22;21030;53.912;15.214;2023-09-30T05:24:11;34.10;30.80
34815;DHT22;21030;53.912;15.214;2023-09-30T05:26:38;33.70;31.40
34815;DHT22;21030;53.912;15.214;2023-09-30T05:29:05;33.80;31.50
34815;DHT22;21030;53.912;15.214;2023-09-30T05:31:32;33.80;31.50
34815;DHT22;21030;53.912;15.214;2023-09-30T05:33:59;34.10;31.30
34815;DHT22;21030;53.912;15.214;2023-09-30T05:36:27;34.40;31.00
34815;DHT22;21030;53.912;15.214;2023-09-30T05:38:54;34.30;31.30
34815;DHT22;21030;53.912;15.214;2023-09-30T05:41:22;34.30;31.40
34815;DHT22;21030;53.912;15.214;2023-09-30T05:43:49;35.20;30.60
34815;DHT22;21030;53.912;15.214;2023-09-30T05:46:16;34.50;30.70
34815;DHT22;21030;53.912;15.214;2023-09-30T05:48:43;34.50;30.80
34815;DHT22;21030;53.912;15.214;2023-09-30T05:51:10;34.60;30.80
34815;DHT22;21030;53.912;15.214;2023-09-30T05:53:41;34.90;30.30
34815;DHT22;21030;53.912;15.214;2023-09-30T05:56:08;35.30;30.00
34815;DHT22;21030;53.912;15.214;2023-09-30T05:58:38;35.40;30.00
34815;DHT22;21030;53.912;15.214;2023-09-30T06:01:08;35.80;29.40
34815;DHT22;21030;53.912;15.214;2023-09-30T06:03:39;35.40;29.70
34815;DHT22;21030;53.912;15.214;2023-09-30T06:06:13;36.10;29.50
34815;DHT22;21030;53.912;15.214;2023-09-30T06:08:43;35.50;29.40
34815;DHT22;21030;53.912;15.214;2023-09-30T06:11:19;35.80;29.60
34815;DHT22;21030;53.912;15.214;2023-09-30T06:13:46;36.10;29.40
34815;DHT22;21030;53.912;15.214;2023-09-30T06:16:13;35.20;29.70
34815;DHT22;21030;53.912;15.214;2023-09-30T06:18:40;35.00;29.90
34815;DHT22;21030;53.912;15.214;2023-09-30T06:21:07;35.40;30.00
34815;DHT22;21030;53.912;15.214;2023-09-30T06:23:36;35.50;29.90
34815;DHT22;21030;53.912;15.214;2023-09-30T06:26:03;35.20;30.00
34815;DHT22;21030;53.912;15.214;2023-09-30T06:28:30;35.70;30.00
34815;DHT22;21030;53.912;15.214;2023-09-30T06:30:58;35.90;29.40
34815;DHT22;21030;53.912;15.214;2023-09-30T06:33:25;36.10;29.40
34815;DHT22;21030;53.912;15.214;2023-09-30T06:35:56;36.40;28.80
34815;DHT22;21030;53.912;15.214;2023-09-30T06:38:23;36.50;28.50
34815;DHT22;21030;53.912;15.214;2023-09-30T06:40:50;37.10;28.50
34815;DHT22;21030;53.912;15.214;2023-09-30T06:43:17;37.60;27.90
34815;DHT22;21030;53.912;15.214;2023-09-30T06:45:45;37.70;27.70
34815;DHT22;21030;53.912;15.214;2023-09-30T06:48:13;38.00;27.30
34815;DHT22;21030;53.912;15.214;2023-09-30T06:50:46;38.50;27.10
34815;DHT22;21030;53.912;15.214;2023-09-30T06:53:19;38.10;27.00
34815;DHT22;21030;53.912;15.214;2023-09-30T06:55:45;38.60;26.80
34815;DHT22;21030;53.912;15.214;2023-09-30T06:58:13;38.20;26.60
34815;DHT22;21030;53.912;15.214;2023-09-30T07:00:41;38.60;26.80
34815;DHT22;21030;53.912;15.214;2023-09-30T07:03:08;38.40;26.80
34815;DHT22;21030;53.912;15.214;2023-09-30T07:05:36;38.70;26.30
34815;DHT22;21030;53.912;15.214;2023-09-30T07:08:04;38.50;26.20
34815;DHT22;21030;53.912;15.214;2023-09-30T07:10:31;38.90;26.60
34815;DHT22;21030;53.912;15.214;2023-09-30T07:12:58;39.00;26.20
34815;DHT22;21030;53.912;15.214;2023-09-30T07:15:25;39.50;26.30
34815;DHT22;21030;53.912;15.214;2023-09-30T07:17:52;39.20;25.90
34815;DHT22;21030;53.912;15.214;2023-09-30T07:20:19;39.10;26.00
34815;DHT22;21030;53.912;15.214;2023-09-30T07:22:50;39.00;25.80
34815;DHT22;21030;53.912;15.214;2023-09-30T07:25:37;38.80;26.00
34815;DHT22;21030;53.912;15.214;2023-09-30T07:28:04;38.40;26.10
34815;DHT22;21030;53.912;15.214;2023-09-30T07:30:31;38.70;26.40
34815;DHT22;21030;53.912;15.214;2023-09-30T07:32:58;39.40;25.90
34815;DHT22;21030;53.912;15.214;2023-09-30T07:35:25;40.40;25.50
34815;DHT22;21030;53.912;15.214;2023-09-30T07:37:52;40.30;24.80
34815;DHT22;21030;53.912;15.214;2023-09-30T07:40:20;40.30;24.80
34815;DHT22;21030;53.912;15.214;2023-09-30T07:42:48;40.00;25.10
34815;DHT22;21030;53.912;15.214;2023-09-30T07:45:15;40.30;24.90
34815;DHT22;21030;53.912;15.214;2023-09-30T07:47:44;39.90;24.80
34815;DHT22;21030;53.912;15.214;2023-09-30T07:50:13;39.90;25.10
34815;DHT22;21030;53.912;15.214;2023-09-30T07:52:40;39.70;24.60
34815;DHT22;21030;53.912;15.214;2023-09-30T07:55:09;40.00;25.10
34815;DHT22;21030;53.912;15.214;2023-09-30T07:57:37;40.80;24.50
34815;DHT22;21030;53.912;15.214;2023-09-30T08:00:05;40.40;24.30
34815;DHT22;21030;53.912;15.214;2023-09-30T08:02:37;40.80;24.20
34815;DHT22;21030;53.912;15.214;2023-09-30T08:05:05;41.60;24.00
34815;DHT22;21030;53.912;15.214;2023-09-30T08:07:33;42.30;23.40
34815;DHT22;21030;53.912;15.214;2023-09-30T08:10:02;42.10;23.30
34815;DHT22;21030;53.912;15.214;2023-09-30T08:12:32;41.60;23.20
34815;DHT22;21030;53.912;15.214;2023-09-30T08:15:00;41.30;23.30
34815;DHT22;21030;53.912;15.214;2023-09-30T08:17:29;41.30;23.40
34815;DHT22;21030;53.912;15.214;2023-09-30T08:19:56;41.40;23.50
34815;DHT22;21030;53.912;15.214;2023-09-30T08:22:24;41.60;23.40
34815;DHT22;21030;53.912;15.214;2023-09-30T08:24:54;41.40;23.30
34815;DHT22;21030;53.912;15.214;2023-09-30T08:27:22;41.40;23.70
34815;DHT22;21030;53.912;15.214;2023-09-30T08:29:51;41.80;23.60
34815;DHT22;21030;53.912;15.214;2023-09-30T08:32:18;41.70;23.40
34815;DHT22;21030;53.912;15.214;2023-09-30T08:34:45;42.20;23.30
34815;DHT22;21030;53.912;15.214;2023-09-30T08:37:12;42.20;22.80
34815;DHT22;21030;53.912;15.214;2023-09-30T08:39:40;41.40;23.00
34815;DHT22;21030;53.912;15.214;2023-09-30T08:42:10;41.30;23.50
34815;DHT22;21030;53.912;15.214;2023-09-30T08:44:41;41.60;23.20
34815;DHT22;21030;53.912;15.214;2023-09-30T08:47:08;41.00;23.50
34815;DHT22;21030;53.912;15.214;2023-09-30T08:49:41;41.50;23.60
34815;DHT22;21030;53.912;15.214;2023-09-30T08:52:12;41.70;23.40
34815;DHT22;21030;53.912;15.214;2023-09-30T08:54:40;41.80;23.00
34815;DHT22;21030;53.912;15.214;2023-09-30T08:57:09;41.60;22.90
34815;DHT22;21030;53.912;15.214;2023-09-30T08:59:38;41.70;23.20
34815;DHT22;21030;53.912;15.214;2023-09-30T09:02:10;41.30;23.30
34815;DHT22;21030;53.912;15.214;2023-09-30T09:04:38;41.80;23.30
34815;DHT22;21030;53.912;15.214;2023-09-30T09:07:05;41.20;23.60
34815;DHT22;21030;53.912;15.214;2023-09-30T09:09:32;40.80;23.10
34815;DHT22;21030;53.912;15.214;2023-09-30T09:11:59;40.90;23.80
34815;DHT22;21030;53.912;15.214;2023-09-30T09:14:44;41.80;23.50
34815;DHT22;21030;53.912;15.214;2023-09-30T09:17:13;41.10;23.40
34815;DHT22;21030;53.912;15.214;2023-09-30T09:19:41;40.90;23.70
34815;DHT22;21030;53.912;15.214;2023-09-30T09:22:08;41.60;23.70
34815;DHT22;21030;53.912;15.214;2023-09-30T09:24:38;41.50;23.10
34815;DHT22;21030;53.912;15.214;2023-09-30T09:27:09;41.40;23.30
34815;DHT22;21030;53.912;15.214;2023-09-30T09:29:40;41.80;23.30
34815;DHT22;21030;53.912;15.214;2023-09-30T09:32:16;41.10;23.30
34815;DHT22;21030;53.912;15.214;2023-09-30T09:34:45;41.00;23.40
34815;DHT22;21030;53.912;15.214;2023-09-30T09:37:22;41.40;23.50
34815;DHT22;21030;53.912;15.214;2023-09-30T09:39:50;41.40;22.80
34815;DHT22;21030;53.912;15.214;2023-09-30T09:44:55;41.00;23.40
34815;DHT22;21030;53.912;15.214;2023-09-30T09:47:23;40.00;22.80
34815;DHT22;21030;53.912;15.214;2023-09-30T09:49:51;40.00;23.30
34815;DHT22;21030;53.912;15.214;2023-09-30T09:52:20;39.70;23.50
34815;DHT22;21030;53.912;15.214;2023-09-30T09:54:48;39.90;23.70
34815;DHT22;21030;53.912;15.214;2023-09-30T09:57:19;40.20;23.80
34815;DHT22;21030;53.912;15.214;2023-09-30T09:59:47;40.10;23.50
34815;DHT22;21030;53.912;15.214;2023-09-30T10:02:15;39.00;24.00
34815;DHT22;21030;53.912;15.214;2023-09-30T10:04:46;39.20;24.50
34815;DHT22;21030;53.912;15.214;2023-09-30T10:07:26;38.80;24.40
34815;DHT22;21030;53.912;15.214;2023-09-30T10:09:55;38.50;24.60
34815;DHT22;21030;53.912;15.214;2023-09-30T10:12:26;38.10;24.80
34815;DHT22;21030;53.912;15.214;2023-09-30T10:14:53;38.50;24.80
34815;DHT22;21030;53.912;15.214;2023-09-30T10:17:20;38.40;25.30
34815;DHT22;21030;53.912;15.214;2023-09-30T10:20:04;38.30;24.90
34815;DHT22;21030;53.912;15.214;2023-09-30T10:22:33;38.50;25.00
34815;DHT22;21030;53.912;15.214;2023-09-30T10:25:01;38.30;24.60
34815;DHT22;21030;53.912;15.214;2023-09-30T10:27:48;38.00;25.20
34815;DHT22;21030;53.912;15.214;2023-09-30T10:30:15;38.30;25.00
34815;DHT22;21030;53.912;15.214;2023-09-30T10:37:48;41.50;22.90
34815;DHT22;21030;53.912;15.214;2023-09-30T10:40:28;41.90;22.70
34815;DHT22;21030;53.912;15.214;2023-09-30T10:42:56;41.90;22.20
34815;DHT22;21030;53.912;15.214;2023-09-30T10:45:42;42.00;22.50
34815;DHT22;21030;53.912;15.214;2023-09-30T10:50:54;42.10;22.90
34815;DHT22;21030;53.912;15.214;2023-09-30T10:53:22;41.60;23.10
34815;DHT22;21030;53.912;15.214;2023-09-30T10:56:00;42.30;23.10
34815;DHT22;21030;53.912;15.214;2023-09-30T10:58:48;42.10;23.00
34815;DHT22;21030;53.912;15.214;2023-09-30T11:01:17;40.60;23.10
34815;DHT22;21030;53.912;15.214;2023-09-30T11:03:46;40.20;23.40
34815;DHT22;21030;53.912;15.214;2023-09-30T11:06:16;40.40;23.40
34815;DHT22;21030;53.912;15.214;2023-09-30T11:08:54;40.30;23.70
34815;DHT22;21030;53.912;15.214;2023-09-30T11:11:39;40.60;23.80
34815;DHT22;21030;53.912;15.214;2023-09-30T11:14:24;40.60;23.40
34815;DHT22;21030;53.912;15.214;2023-09-30T11:16:57;40.90;23.20
34815;DHT22;21030;53.912;15.214;2023-09-30T11:19:25;39.80;23.50
34815;DHT22;21030;53.912;15.214;2023-09-30T11:21:54;39.90;24.20
34815;DHT22;21030;53.912;15.214;2023-09-30T11:24:22;40.60;23.90
34815;DHT22;21030;53.912;15.214;2023-09-30T11:26:53;40.70;23.80
34815;DHT22;21030;53.912;15.214;2023-09-30T11:29:20;40.40;23.50
34815;DHT22;21030;53.912;15.214;2023-09-30T11:31:49;40.40;23.50
34815;DHT22;21030;53.912;15.214;2023-09-30T11:34:18;40.60;23.50
34815;DHT22;21030;53.912;15.214;2023-09-30T11:36:52;40.10;23.60
34815;DHT22;21030;53.912;15.214;2023-09-30T11:39:26;40.20;23.50
34815;DHT22;21030;53.912;15.214;2023-09-30T11:41:55;41.00;23.70
34815;DHT22;21030;53.912;15.214;2023-09-30T11:44:24;40.90;23.30
34815;DHT22;21030;53.912;15.214;2023-09-30T11:46:57;40.10;23.00
34815;DHT22;21030;53.912;15.214;2023-09-30T11:49:34;39.70;23.20
34815;DHT22;21030;53.912;15.214;2023-09-30T11:52:09;40.30;22.90
34815;DHT22;21030;53.912;15.214;2023-09-30T11:54:42;39.90;22.60
34815;DHT22;21030;53.912;15.214;2023-09-30T11:57:16;38.90;23.00
34815;DHT22;21030;53.912;15.214;2023-09-30T11:59:45;39.20;23.10
34815;DHT22;21030;53.912;15.214;2023-09-30T12:02:13;39.30;22.80
34815;DHT22;21030;53.912;15.214;2023-09-30T12:04:49;39.40;23.20
34815;DHT22;21030;53.912;15.214;2023-09-30T12:07:16;39.90;23.00
34815;DHT22;21030;53.912;15.214;2023-09-30T12:09:43;40.70;22.80
34815;DHT22;21030;53.912;15.214;2023-09-30T12:12:11;41.50;22.20
34815;DHT22;21030;53.912;15.214;2023-09-30T12:14:39;41.90;21.50
34815;DHT22;21030;53.912;15.214;2023-09-30T12:17:07;42.80;21.30
34815;DHT22;21030;53.912;15.214;2023-09-30T12:19:40;42.40;20.60
34815;DHT22;21030;53.912;15.214;2023-09-30T12:22:09;42.40;20.90
34815;DHT22;21030;53.912;15.214;2023-09-30T12:24:37;42.10;20.80
34815;DHT22;21030;53.912;15.214;2023-09-30T12:27:08;42.80;20.50
34815;DHT22;21030;53.912;15.214;2023-09-30T12:29:36;43.60;21.10
34815;DHT22;21030;53.912;15.214;2023-09-30T12:32:05;43.30;20.40
34815;DHT22;21030;53.912;15.214;2023-09-30T12:34:38;43.00;20.20
34815;DHT22;21030;53.912;15.214;2023-09-30T12:37:05;42.90;20.40
34815;DHT22;21030;53.912;15.214;2023-09-30T12:39:34;43.80;20.90
34815;DHT22;21030;53.912;15.214;2023-09-30T12:42:01;45.00;20.20
34815;DHT22;21030;53.912;15.214;2023-09-30T12:44:28;44.60;19.60
34815;DHT22;21030;53.912;15.214;2023-09-30T12:46:56;45.00;19.40
34815;DHT22;21030;53.912;15.214;2023-09-30T12:49:23;45.50;19.50
34815;DHT22;21030;53.912;15.214;2023-09-30T12:51:50;45.50;19.30
34815;DHT22;21030;53.912;15.214;2023-09-30T12:54:17;45.00;19.20
34815;DHT22;21030;53.912;15.214;2023-09-30T12:56:45;45.40;19.50
34815;DHT22;21030;53.912;15.214;2023-09-30T12:59:14;45.90;19.50
34815;DHT22;21030;53.912;15.214;2023-09-30T13:01:41;46.10;19.30
34815;DHT22;21030;53.912;15.214;2023-09-30T13:04:09;46.60;19.20
34815;DHT22;21030;53.912;15.214;2023-09-30T13:06:36;45.30;18.60
34815;DHT22;21030;53.912;15.214;2023-09-30T13:09:03;44.70;19.10
34815;DHT22;21030;53.912;15.214;2023-09-30T13:11:31;44.60;19.80
34815;DHT22;21030;53.912;15.214;2023-09-30T13:14:03;44.10;19.50
34815;DHT22;21030;53.912;15.214;2023-09-30T13:16:30;43.80;19.80
34815;DHT22;21030;53.912;15.214;2023-09-30T13:18:57;43.80;19.90
34815;DHT22;21030;53.912;15.214;2023-09-30T13:21:24;43.30;20.20
34815;DHT22;21030;53.912;15.214;2023-09-30T13:23:52;43.90;20.20
34815;DHT22;21030;53.912;15.214;2023-09-30T13:26:19;43.30;20.00
34815;DHT22;21030;53.912;15.214;2023-09-30T13:28:46;42.90;20.30
34815;DHT22;21030;53.912;15.214;2023-09-30T13:31:13;42.90;20.50
34815;DHT22;21030;53.912;15.214;2023-09-30T13:33:40;42.60;20.40
34815;DHT22;21030;53.912;15.214;2023-09-30T13:36:07;42.60;20.50
34815;DHT22;21030;53.912;15.214;2023-09-30T13:38:34;42.20;20.40
34815;DHT22;21030;53.912;15.214;2023-09-30T13:41:01;42.20;20.10
34815;DHT22;21030;53.912;15.214;2023-09-30T13:43:28;42.10;20.40
34815;DHT22;21030;53.912;15.214;2023-09-30T13:45:56;42.40;20.70
34815;DHT22;21030;53.912;15.214;2023-09-30T13:48:23;42.40;20.50
34815;DHT22;21030;53.912;15.214;2023-09-30T13:50:51;42.90;20.70
34815;DHT22;21030;53.912;15.214;2023-09-30T13:53:19;43.10;20.60
34815;DHT22;21030;53.912;15.214;2023-09-30T13:55:46;43.10;20.70
34815;DHT22;21030;53.912;15.214;2023-09-30T13:58:14;42.60;21.40
34815;DHT22;21030;53.912;15.214;2023-09-30T14:00:46;42.50;21.00
34815;DHT22;21030;53.912;15.214;2023-09-30T14:03:14;41.30;21.40
34815;DHT22;21030;53.912;15.214;2023-09-30T14:05:42;40.70;22.00
34815;DHT22;21030;53.912;15.214;2023-09-30T14:08:11;40.20;22.50
34815;DHT22;21030;53.912;15.214;2023-09-30T14:10:38;40.30;22.80
34815;DHT22;21030;53.912;15.214;2023-09-30T14:13:05;40.00;22.80
34815;DHT22;21030;53.912;15.214;2023-09-30T14:15:32;39.30;23.10
34815;DHT22;21030;53.912;15.214;2023-09-30T14:17:59;39.10;23.70
34815;DHT22;21030;53.912;15.214;2023-09-30T14:20:27;39.30;23.90
34815;DHT22;21030;53.912;15.214;2023-09-30T14:22:54;39.20;23.70
34815;DHT22;21030;53.912;15.214;2023-09-30T14:25:24;39.80;23.80
34815;DHT22;21030;53.912;15.214;2023-09-30T14:27:51;40.20;23.40
34815;DHT22;21030;53.912;15.214;2023-09-30T14:30:19;40.30;23.30
34815;DHT22;21030;53.912;15.214;2023-09-30T14:32:47;40.40;23.10
34815;DHT22;21030;53.912;15.214;2023-09-30T14:35:15;39.90;23.40
34815;DHT22;21030;53.912;15.214;2023-09-30T14:37:42;40.10;23.40
34815;DHT22;21030;53.912;15.214;2023-09-30T14:40:10;39.90;23.40
34815;DHT22;21030;53.912;15.214;2023-09-30T14:42:37;39.50;23.60
34815;DHT22;21030;53.912;15.214;2023-09-30T14:45:05;39.70;23.60
34815;DHT22;21030;53.912;15.214;2023-09-30T14:47:33;39.30;23.90
34815;DHT22;21030;53.912;15.214;2023-09-30T14:50:00;40.00;23.90
34815;DHT22;21030;53.912;15.214;2023-09-30T14:52:28;39.90;23.60
34815;DHT22;21030;53.912;15.214;2023-09-30T14:54:56;39.30;23.60
34815;DHT22;21030;53.912;15.214;2023-09-30T14:57:23;40.30;23.70
34815;DHT22;21030;53.912;15.214;2023-09-30T14:59:51;40.10;23.60
34815;DHT22;21030;53.912;15.214;2023-09-30T15:02:18;40.30;23.50
34815;DHT22;21030;53.912;15.214;2023-09-30T15:04:46;39.90;22.90
34815;DHT22;21030;53.912;15.214;2023-09-30T15:07:13;39.50;23.20
34815;DHT22;21030;53.912;15.214;2023-09-30T15:09:40;39.40;23.40
34815;DHT22;21030;53.912;15.214;2023-09-30T15:12:09;38.80;23.50
34815;DHT22;21030;53.912;15.214;2023-09-30T15:14:36;38.00;23.80
34815;DHT22;21030;53.912;15.214;2023-09-30T15:17:03;38.60;24.30
34815;DHT22;21030;53.912;15.214;2023-09-30T15:19:30;38.60;24.40
34815;DHT22;21030;53.912;15.214;2023-09-30T15:21:57;39.20;24.20
34815;DHT22;21030;53.912;15.214;2023-09-30T15:24:25;39.00;24.00
34815;DHT22;21030;53.912;15.214;2023-09-30T15:26:52;39.40;24.20
34815;DHT22;21030;53.912;15.214;2023-09-30T15:29:20;39.30;24.00
34815;DHT22;21030;53.912;15.214;2023-09-30T15:31:47;39.60;24.10
34815;DHT22;21030;53.912;15.214;2023-09-30T15:34:14;40.00;23.80